Cutler Bay, Florida
Current Conditions -  °F | °C
As of 3:53 PM on Tuesday 21 Oct 2014 (Local Time) from KTMB Reporting Station
Few Clouds Few Clouds  
Wind Chill: 78°   Ceiling: Unl
Heat Index: 81°   Visibility: 10mi
Dew Point: 73°   Wind: 10mph
Humidity: 84%   Direction: 270°W
Pressure: 29.91"   Gusts: NA
Location:  25.5586°N, 80.4556°W
Report Text: KTMB 211953Z 27009KT 10SM FEW010 26/23 A2991 RMK AO2 RAE14 SLP126 P0000 T02560228
Loading
Personal Weather Stations






























Interactive Weather Map New forecast layout! Learn more

10-Day Weather Forecast

Advertisements
Track Severe Weather on mobile